sensor_id;sensor_type;location;lat;lon;timestamp;temperature;humidity
10344;DHT22;5217;43.960;10.954;2023-05-07T00:01:40;20.10;91.90
10344;DHT22;5217;43.960;10.954;2023-05-07T00:04:09;20.10;91.90
10344;DHT22;5217;43.960;10.954;2023-05-07T00:06:38;20.10;92.00
10344;DHT22;5217;43.960;10.954;2023-05-07T00:09:07;20.10;92.00
10344;DHT22;5217;43.960;10.954;2023-05-07T00:11:35;20.10;92.00
10344;DHT22;5217;43.960;10.954;2023-05-07T00:14:04;20.00;92.00
10344;DHT22;5217;43.960;10.954;2023-05-07T00:16:32;20.00;92.10
10344;DHT22;5217;43.960;10.954;2023-05-07T00:19:00;20.00;92.10
10344;DHT22;5217;43.960;10.954;2023-05-07T00:21:30;20.00;92.40
10344;DHT22;5217;43.960;10.954;2023-05-07T00:23:58;20.00;92.10
10344;DHT22;5217;43.960;10.954;2023-05-07T00:26:27;19.90;92.00
10344;DHT22;5217;43.960;10.954;2023-05-07T00:28:55;19.90;92.10
10344;DHT22;5217;43.960;10.954;2023-05-07T00:31:23;19.90;92.10
10344;DHT22;5217;43.960;10.954;2023-05-07T00:33:52;19.90;92.50
10344;DHT22;5217;43.960;10.954;2023-05-07T00:36:20;19.90;92.20
10344;DHT22;5217;43.960;10.954;2023-05-07T00:38:50;19.90;92.30
10344;DHT22;5217;43.960;10.954;2023-05-07T00:41:18;19.80;92.30
10344;DHT22;5217;43.960;10.954;2023-05-07T00:43:47;19.80;92.40
10344;DHT22;5217;43.960;10.954;2023-05-07T00:46:15;19.80;92.40
10344;DHT22;5217;43.960;10.954;2023-05-07T00:48:44;19.80;92.40
10344;DHT22;5217;43.960;10.954;2023-05-07T00:51:12;19.80;92.40
10344;DHT22;5217;43.960;10.954;2023-05-07T00:53:41;19.80;92.40
10344;DHT22;5217;43.960;10.954;2023-05-07T00:56:11;19.70;92.30
10344;DHT22;5217;43.960;10.954;2023-05-07T00:58:40;19.80;92.40
10344;DHT22;5217;43.960;10.954;2023-05-07T01:01:09;19.70;92.30
10344;DHT22;5217;43.960;10.954;2023-05-07T01:03:37;19.80;92.40
10344;DHT22;5217;43.960;10.954;2023-05-07T01:06:07;19.70;92.40
10344;DHT22;5217;43.960;10.954;2023-05-07T01:08:39;19.70;92.40
10344;DHT22;5217;43.960;10.954;2023-05-07T01:11:09;19.70;92.50
10344;DHT22;5217;43.960;10.954;2023-05-07T01:13:39;19.60;92.50
10344;DHT22;5217;43.960;10.954;2023-05-07T01:16:09;19.70;92.50
10344;DHT22;5217;43.960;10.954;2023-05-07T01:18:37;19.60;92.50
10344;DHT22;5217;43.960;10.954;2023-05-07T01:21:07;19.60;92.50
10344;DHT22;5217;43.960;10.954;2023-05-07T01:23:40;19.60;92.60
10344;DHT22;5217;43.960;10.954;2023-05-07T01:26:09;19.60;92.70
10344;DHT22;5217;43.960;10.954;2023-05-07T01:28:37;19.60;92.80
10344;DHT22;5217;43.960;10.954;2023-05-07T01:31:06;19.60;92.80
10344;DHT22;5217;43.960;10.954;2023-05-07T01:33:36;19.60;92.80
10344;DHT22;5217;43.960;10.954;2023-05-07T01:36:07;19.50;92.80
10344;DHT22;5217;43.960;10.954;2023-05-07T01:38:36;19.50;92.80
10344;DHT22;5217;43.960;10.954;2023-05-07T01:41:07;19.50;92.80
10344;DHT22;5217;43.960;10.954;2023-05-07T01:43:35;19.50;92.80
10344;DHT22;5217;43.960;10.954;2023-05-07T01:46:04;19.50;92.80
10344;DHT22;5217;43.960;10.954;2023-05-07T01:48:34;19.50;92.90
10344;DHT22;5217;43.960;10.954;2023-05-07T01:51:03;19.50;92.90
10344;DHT22;5217;43.960;10.954;2023-05-07T01:53:35;19.40;92.90
10344;DHT22;5217;43.960;10.954;2023-05-07T01:56:05;19.50;92.90
10344;DHT22;5217;43.960;10.954;2023-05-07T01:58:35;19.40;92.90
10344;DHT22;5217;43.960;10.954;2023-05-07T02:01:03;19.40;93.00
10344;DHT22;5217;43.960;10.954;2023-05-07T02:03:31;19.40;93.00
10344;DHT22;5217;43.960;10.954;2023-05-07T02:06:00;19.40;93.00
10344;DHT22;5217;43.960;10.954;2023-05-07T02:08:29;19.30;92.90
10344;DHT22;5217;43.960;10.954;2023-05-07T02:10:57;19.40;93.00
10344;DHT22;5217;43.960;10.954;2023-05-07T02:13:28;19.30;92.90
10344;DHT22;5217;43.960;10.954;2023-05-07T02:15:58;19.30;93.00
10344;DHT22;5217;43.960;10.954;2023-05-07T02:18:27;19.30;93.10
10344;DHT22;5217;43.960;10.954;2023-05-07T02:20:55;19.30;93.10
10344;DHT22;5217;43.960;10.954;2023-05-07T02:23:23;19.30;93.30
10344;DHT22;5217;43.960;10.954;2023-05-07T02:25:52;19.30;93.20
10344;DHT22;5217;43.960;10.954;2023-05-07T02:28:20;19.30;93.30
10344;DHT22;5217;43.960;10.954;2023-05-07T02:30:48;19.30;93.40
10344;DHT22;5217;43.960;10.954;2023-05-07T02:33:18;19.20;93.40
10344;DHT22;5217;43.960;10.954;2023-05-07T02:35:47;19.20;93.40
10344;DHT22;5217;43.960;10.954;2023-05-07T02:38:15;19.20;93.50
10344;DHT22;5217;43.960;10.954;2023-05-07T02:40:43;19.20;93.60
10344;DHT22;5217;43.960;10.954;2023-05-07T02:43:12;19.20;93.70
10344;DHT22;5217;43.960;10.954;2023-05-07T02:45:40;19.20;93.80
10344;DHT22;5217;43.960;10.954;2023-05-07T02:48:10;19.20;93.80
10344;DHT22;5217;43.960;10.954;2023-05-07T02:50:40;19.10;93.70
10344;DHT22;5217;43.960;10.954;2023-05-07T02:53:08;19.10;93.80
10344;DHT22;5217;43.960;10.954;2023-05-07T02:55:36;19.10;93.90
10344;DHT22;5217;43.960;10.954;2023-05-07T02:58:04;19.10;93.90
10344;DHT22;5217;43.960;10.954;2023-05-07T03:00:33;19.10;93.90
10344;DHT22;5217;43.960;10.954;2023-05-07T03:03:01;19.10;93.90
10344;DHT22;5217;43.960;10.954;2023-05-07T03:05:30;19.10;94.00
10344;DHT22;5217;43.960;10.954;2023-05-07T03:08:00;19.10;94.10
10344;DHT22;5217;43.960;10.954;2023-05-07T03:10:28;19.10;94.10
10344;DHT22;5217;43.960;10.954;2023-05-07T03:12:56;19.00;94.10
10344;DHT22;5217;43.960;10.954;2023-05-07T03:15:25;19.00;94.10
10344;DHT22;5217;43.960;10.954;2023-05-07T03:17:53;19.00;94.20
10344;DHT22;5217;43.960;10.954;2023-05-07T03:20:22;19.00;94.20
10344;DHT22;5217;43.960;10.954;2023-05-07T03:22:50;19.00;94.30
10344;DHT22;5217;43.960;10.954;2023-05-07T03:25:20;18.90;94.20
10344;DHT22;5217;43.960;10.954;2023-05-07T03:27:48;18.90;94.20
10344;DHT22;5217;43.960;10.954;2023-05-07T03:30:17;18.90;94.30
10344;DHT22;5217;43.960;10.954;2023-05-07T03:32:45;18.90;94.40
10344;DHT22;5217;43.960;10.954;2023-05-07T03:35:14;18.90;94.60
10344;DHT22;5217;43.960;10.954;2023-05-07T03:37:43;18.90;94.60
10344;DHT22;5217;43.960;10.954;2023-05-07T03:40:11;18.80;94.60
10344;DHT22;5217;43.960;10.954;2023-05-07T03:42:42;18.90;94.60
10344;DHT22;5217;43.960;10.954;2023-05-07T03:45:10;18.80;94.50
10344;DHT22;5217;43.960;10.954;2023-05-07T03:47:39;18.90;94.60
10344;DHT22;5217;43.960;10.954;2023-05-07T03:50:08;18.80;94.60
10344;DHT22;5217;43.960;10.954;2023-05-07T03:52:37;18.80;94.60
10344;DHT22;5217;43.960;10.954;2023-05-07T03:55:06;18.80;94.70
10344;DHT22;5217;43.960;10.954;2023-05-07T03:57:34;18.80;94.70
10344;DHT22;5217;43.960;10.954;2023-05-07T04:00:05;18.80;94.80
10344;DHT22;5217;43.960;10.954;2023-05-07T04:02:35;18.80;94.90
10344;DHT22;5217;43.960;10.954;2023-05-07T04:05:04;18.70;94.90
10344;DHT22;5217;43.960;10.954;2023-05-07T04:07:32;18.70;94.90
10344;DHT22;5217;43.960;10.954;2023-05-07T04:10:01;18.70;95.00
10344;DHT22;5217;43.960;10.954;2023-05-07T04:12:29;18.70;95.30
10344;DHT22;5217;43.960;10.954;2023-05-07T04:14:57;18.70;95.00
10344;DHT22;5217;43.960;10.954;2023-05-07T04:17:27;18.70;95.10
10344;DHT22;5217;43.960;10.954;2023-05-07T04:19:56;18.70;95.00
10344;DHT22;5217;43.960;10.954;2023-05-07T04:22:24;18.70;95.10
10344;DHT22;5217;43.960;10.954;2023-05-07T04:24:52;18.70;95.10
10344;DHT22;5217;43.960;10.954;2023-05-07T04:27:21;18.60;95.10
10344;DHT22;5217;43.960;10.954;2023-05-07T04:29:49;18.60;95.10
10344;DHT22;5217;43.960;10.954;2023-05-07T04:32:18;18.60;95.10
10344;DHT22;5217;43.960;10.954;2023-05-07T04:34:48;18.60;95.20
10344;DHT22;5217;43.960;10.954;2023-05-07T04:37:16;18.60;95.30
10344;DHT22;5217;43.960;10.954;2023-05-07T04:39:45;18.60;95.30
10344;DHT22;5217;43.960;10.954;2023-05-07T04:42:15;18.60;95.30
10344;DHT22;5217;43.960;10.954;2023-05-07T04:44:44;18.60;95.30
10344;DHT22;5217;43.960;10.954;2023-05-07T04:47:12;18.60;95.40
10344;DHT22;5217;43.960;10.954;2023-05-07T04:49:41;18.60;95.50
10344;DHT22;5217;43.960;10.954;2023-05-07T04:52:10;18.60;95.50
10344;DHT22;5217;43.960;10.954;2023-05-07T04:54:39;18.60;95.60
10344;DHT22;5217;43.960;10.954;2023-05-07T04:57:07;18.60;95.60
10344;DHT22;5217;43.960;10.954;2023-05-07T04:59:35;18.60;95.70
10344;DHT22;5217;43.960;10.954;2023-05-07T05:02:04;18.50;95.80
10344;DHT22;5217;43.960;10.954;2023-05-07T05:04:32;18.60;95.90
10344;DHT22;5217;43.960;10.954;2023-05-07T05:07:00;18.50;95.90
10344;DHT22;5217;43.960;10.954;2023-05-07T05:09:32;18.60;96.00
10344;DHT22;5217;43.960;10.954;2023-05-07T05:12:00;18.60;96.10
10344;DHT22;5217;43.960;10.954;2023-05-07T05:14:29;18.60;96.20
10344;DHT22;5217;43.960;10.954;2023-05-07T05:16:58;18.60;96.20
10344;DHT22;5217;43.960;10.954;2023-05-07T05:19:26;18.50;96.20
10344;DHT22;5217;43.960;10.954;2023-05-07T05:21:54;18.60;96.40
10344;DHT22;5217;43.960;10.954;2023-05-07T05:24:22;18.60;96.40
10344;DHT22;5217;43.960;10.954;2023-05-07T05:26:53;18.60;96.60
10344;DHT22;5217;43.960;10.954;2023-05-07T05:29:21;18.50;96.50
10344;DHT22;5217;43.960;10.954;2023-05-07T05:31:50;18.50;96.50
10344;DHT22;5217;43.960;10.954;2023-05-07T05:34:18;18.60;96.60
10344;DHT22;5217;43.960;10.954;2023-05-07T05:36:48;18.60;96.70
10344;DHT22;5217;43.960;10.954;2023-05-07T05:39:17;18.60;96.80
10344;DHT22;5217;43.960;10.954;2023-05-07T05:41:45;18.50;96.80
10344;DHT22;5217;43.960;10.954;2023-05-07T05:44:15;18.60;97.10
10344;DHT22;5217;43.960;10.954;2023-05-07T05:46:44;18.60;97.20
10344;DHT22;5217;43.960;10.954;2023-05-07T05:49:12;18.60;97.10
10344;DHT22;5217;43.960;10.954;2023-05-07T05:51:40;18.60;97.10
10344;DHT22;5217;43.960;10.954;2023-05-07T05:54:09;18.60;97.30
10344;DHT22;5217;43.960;10.954;2023-05-07T05:56:37;18.60;97.50
10344;DHT22;5217;43.960;10.954;2023-05-07T05:59:06;18.60;97.70
10344;DHT22;5217;43.960;10.954;2023-05-07T06:01:36;18.60;97.70
10344;DHT22;5217;43.960;10.954;2023-05-07T06:04:04;18.60;97.40
10344;DHT22;5217;43.960;10.954;2023-05-07T06:06:32;18.60;97.30
10344;DHT22;5217;43.960;10.954;2023-05-07T06:09:01;18.70;97.40
10344;DHT22;5217;43.960;10.954;2023-05-07T06:11:29;18.70;97.50
10344;DHT22;5217;43.960;10.954;2023-05-07T06:13:59;18.70;97.50
10344;DHT22;5217;43.960;10.954;2023-05-07T06:16:27;18.70;97.40
10344;DHT22;5217;43.960;10.954;2023-05-07T06:18:57;18.70;97.80
10344;DHT22;5217;43.960;10.954;2023-05-07T06:21:26;18.70;98.00
10344;DHT22;5217;43.960;10.954;2023-05-07T06:23:54;18.70;98.00
10344;DHT22;5217;43.960;10.954;2023-05-07T06:26:22;18.70;98.00
10344;DHT22;5217;43.960;10.954;2023-05-07T06:28:50;18.70;98.00
10344;DHT22;5217;43.960;10.954;2023-05-07T06:31:19;18.70;98.00
10344;DHT22;5217;43.960;10.954;2023-05-07T06:33:48;18.80;98.10
10344;DHT22;5217;43.960;10.954;2023-05-07T06:36:18;18.80;98.20
10344;DHT22;5217;43.960;10.954;2023-05-07T06:38:47;18.80;98.30
10344;DHT22;5217;43.960;10.954;2023-05-07T06:41:15;18.80;98.50
10344;DHT22;5217;43.960;10.954;2023-05-07T06:43:43;18.80;98.50
10344;DHT22;5217;43.960;10.954;2023-05-07T06:46:12;18.80;98.40
10344;DHT22;5217;43.960;10.954;2023-05-07T06:48:40;18.80;98.40
10344;DHT22;5217;43.960;10.954;2023-05-07T06:51:08;18.90;98.40
10344;DHT22;5217;43.960;10.954;2023-05-07T06:53:38;18.80;97.80
10344;DHT22;5217;43.960;10.954;2023-05-07T06:56:07;18.90;97.80
10344;DHT22;5217;43.960;10.954;2023-05-07T06:58:35;18.90;98.00
10344;DHT22;5217;43.960;10.954;2023-05-07T07:01:04;18.90;98.10
10344;DHT22;5217;43.960;10.954;2023-05-07T07:03:32;18.90;98.10
10344;DHT22;5217;43.960;10.954;2023-05-07T07:06:00;18.90;98.10
10344;DHT22;5217;43.960;10.954;2023-05-07T07:08:30;18.90;98.40
10344;DHT22;5217;43.960;10.954;2023-05-07T07:11:00;19.00;98.60
10344;DHT22;5217;43.960;10.954;2023-05-07T07:13:28;19.00;98.30
10344;DHT22;5217;43.960;10.954;2023-05-07T07:15:56;19.00;98.30
10344;DHT22;5217;43.960;10.954;2023-05-07T07:18:25;19.00;98.50
10344;DHT22;5217;43.960;10.954;2023-05-07T07:20:53;19.00;98.60
10344;DHT22;5217;43.960;10.954;2023-05-07T07:23:22;19.10;98.50
10344;DHT22;5217;43.960;10.954;2023-05-07T07:25:50;19.10;98.40
10344;DHT22;5217;43.960;10.954;2023-05-07T07:28:21;19.10;98.10
10344;DHT22;5217;43.960;10.954;2023-05-07T07:30:49;19.10;97.80
10344;DHT22;5217;43.960;10.954;2023-05-07T07:33:21;19.10;97.70
10344;DHT22;5217;43.960;10.954;2023-05-07T07:35:50;19.10;97.60
10344;DHT22;5217;43.960;10.954;2023-05-07T07:38:18;19.20;97.70
10344;DHT22;5217;43.960;10.954;2023-05-07T07:40:47;19.20;97.80
10344;DHT22;5217;43.960;10.954;2023-05-07T07:43:16;19.20;97.80
10344;DHT22;5217;43.960;10.954;2023-05-07T07:45:46;19.20;97.90
10344;DHT22;5217;43.960;10.954;2023-05-07T07:48:14;19.20;97.80
10344;DHT22;5217;43.960;10.954;2023-05-07T07:50:43;19.30;97.80
10344;DHT22;5217;43.960;10.954;2023-05-07T07:53:12;19.20;97.80
10344;DHT22;5217;43.960;10.954;2023-05-07T07:55:40;19.30;97.90
10344;DHT22;5217;43.960;10.954;2023-05-07T07:58:09;19.30;98.00
10344;DHT22;5217;43.960;10.954;2023-05-07T08:00:37;19.30;98.20
10344;DHT22;5217;43.960;10.954;2023-05-07T08:03:09;19.30;97.90
10344;DHT22;5217;43.960;10.954;2023-05-07T08:05:38;19.30;97.70
10344;DHT22;5217;43.960;10.954;2023-05-07T08:08:06;19.30;97.70
10344;DHT22;5217;43.960;10.954;2023-05-07T08:10:35;19.40;97.70
10344;DHT22;5217;43.960;10.954;2023-05-07T08:13:05;19.30;97.50
10344;DHT22;5217;43.960;10.954;2023-05-07T08:15:34;19.40;97.40
10344;DHT22;5217;43.960;10.954;2023-05-07T08:18:02;19.40;97.40
10344;DHT22;5217;43.960;10.954;2023-05-07T08:20:34;19.40;97.40
10344;DHT22;5217;43.960;10.954;2023-05-07T08:23:06;19.40;97.40
10344;DHT22;5217;43.960;10.954;2023-05-07T08:25:35;19.50;97.50
10344;DHT22;5217;43.960;10.954;2023-05-07T08:28:04;19.50;97.70
10344;DHT22;5217;43.960;10.954;2023-05-07T08:30:35;19.50;97.60
10344;DHT22;5217;43.960;10.954;2023-05-07T08:33:04;19.50;97.40
10344;DHT22;5217;43.960;10.954;2023-05-07T08:35:34;19.50;97.20
10344;DHT22;5217;43.960;10.954;2023-05-07T08:38:02;19.50;96.90
10344;DHT22;5217;43.960;10.954;2023-05-07T08:40:35;19.50;97.00
10344;DHT22;5217;43.960;10.954;2023-05-07T08:43:05;19.50;96.60
10344;DHT22;5217;43.960;10.954;2023-05-07T08:45:34;19.50;95.70
10344;DHT22;5217;43.960;10.954;2023-05-07T08:48:04;19.60;95.70
10344;DHT22;5217;43.960;10.954;2023-05-07T08:50:35;19.60;95.80
10344;DHT22;5217;43.960;10.954;2023-05-07T08:53:04;19.60;95.30
10344;DHT22;5217;43.960;10.954;2023-05-07T08:55:32;19.60;95.20
10344;DHT22;5217;43.960;10.954;2023-05-07T08:58:01;19.60;95.30
10344;DHT22;5217;43.960;10.954;2023-05-07T09:00:30;19.70;95.40
10344;DHT22;5217;43.960;10.954;2023-05-07T09:03:00;19.70;95.40
10344;DHT22;5217;43.960;10.954;2023-05-07T09:05:29;19.70;95.40
10344;DHT22;5217;43.960;10.954;2023-05-07T09:08:02;19.80;95.80
10344;DHT22;5217;43.960;10.954;2023-05-07T09:10:34;19.80;95.80
10344;DHT22;5217;43.960;10.954;2023-05-07T09:13:03;19.80;95.80
10344;DHT22;5217;43.960;10.954;2023-05-07T09:15:32;19.80;95.90
10344;DHT22;5217;43.960;10.954;2023-05-07T09:18:00;19.80;95.90
10344;DHT22;5217;43.960;10.954;2023-05-07T09:20:30;19.90;95.60
10344;DHT22;5217;43.960;10.954;2023-05-07T09:23:00;19.90;95.50
10344;DHT22;5217;43.960;10.954;2023-05-07T09:25:29;19.90;95.40
10344;DHT22;5217;43.960;10.954;2023-05-07T09:27:59;19.90;94.90
10344;DHT22;5217;43.960;10.954;2023-05-07T09:30:28;19.90;95.30
10344;DHT22;5217;43.960;10.954;2023-05-07T09:32:58;20.00;95.40
10344;DHT22;5217;43.960;10.954;2023-05-07T09:35:30;20.00;94.70
10344;DHT22;5217;43.960;10.954;2023-05-07T09:38:01;20.00;94.40
10344;DHT22;5217;43.960;10.954;2023-05-07T09:40:31;20.10;94.50
10344;DHT22;5217;43.960;10.954;2023-05-07T09:43:09;20.10;93.30
10344;DHT22;5217;43.960;10.954;2023-05-07T09:45:38;20.10;92.40
10344;DHT22;5217;43.960;10.954;2023-05-07T09:48:08;20.10;93.00
10344;DHT22;5217;43.960;10.954;2023-05-07T09:50:39;20.10;92.60
10344;DHT22;5217;43.960;10.954;2023-05-07T09:53:11;20.20;92.80
10344;DHT22;5217;43.960;10.954;2023-05-07T09:55:42;20.20;93.20
10344;DHT22;5217;43.960;10.954;2023-05-07T09:58:12;20.20;93.70
10344;DHT22;5217;43.960;10.954;2023-05-07T10:00:43;20.30;94.10
10344;DHT22;5217;43.960;10.954;2023-05-07T10:03:13;20.20;94.10
10344;DHT22;5217;43.960;10.954;2023-05-07T10:05:44;20.30;94.30
10344;DHT22;5217;43.960;10.954;2023-05-07T10:08:16;20.40;94.60
10344;DHT22;5217;43.960;10.954;2023-05-07T10:10:47;20.40;94.90
10344;DHT22;5217;43.960;10.954;2023-05-07T10:13:17;20.40;94.70
10344;DHT22;5217;43.960;10.954;2023-05-07T10:15:47;20.40;94.40
10344;DHT22;5217;43.960;10.954;2023-05-07T10:18:16;20.40;93.80
10344;DHT22;5217;43.960;10.954;2023-05-07T10:20:47;20.40;93.30
10344;DHT22;5217;43.960;10.954;2023-05-07T10:23:21;20.50;93.50
10344;DHT22;5217;43.960;10.954;2023-05-07T10:25:51;20.50;93.70
10344;DHT22;5217;43.960;10.954;2023-05-07T10:28:27;20.50;93.90
10344;DHT22;5217;43.960;10.954;2023-05-07T10:31:04;20.60;94.10
10344;DHT22;5217;43.960;10.954;2023-05-07T10:33:38;20.60;94.40
10344;DHT22;5217;43.960;10.954;2023-05-07T10:36:07;20.60;94.80
10344;DHT22;5217;43.960;10.954;2023-05-07T10:38:37;20.70;95.00
10344;DHT22;5217;43.960;10.954;2023-05-07T10:41:07;20.70;95.00
10344;DHT22;5217;43.960;10.954;2023-05-07T10:43:40;20.70;95.00
10344;DHT22;5217;43.960;10.954;2023-05-07T10:46:10;20.70;94.90
10344;DHT22;5217;43.960;10.954;2023-05-07T10:49:10;20.70;94.50
10344;DHT22;5217;43.960;10.954;2023-05-07T10:51:43;20.80;94.30
10344;DHT22;5217;43.960;10.954;2023-05-07T10:54:23;20.80;93.60
10344;DHT22;5217;43.960;10.954;2023-05-07T10:56:54;20.80;92.70
10344;DHT22;5217;43.960;10.954;2023-05-07T10:59:34;20.80;90.90
10344;DHT22;5217;43.960;10.954;2023-05-07T11:02:10;20.90;91.10
10344;DHT22;5217;43.960;10.954;2023-05-07T11:04:41;20.90;90.00
10344;DHT22;5217;43.960;10.954;2023-05-07T11:07:27;20.90;90.30
10344;DHT22;5217;43.960;10.954;2023-05-07T11:10:05;20.90;90.60
10344;DHT22;5217;43.960;10.954;2023-05-07T11:12:54;20.90;90.50
10344;DHT22;5217;43.960;10.954;2023-05-07T11:15:41;21.00;86.60
10344;DHT22;5217;43.960;10.954;2023-05-07T11:18:13;21.00;87.10
10344;DHT22;5217;43.960;10.954;2023-05-07T11:20:47;21.10;88.00
10344;DHT22;5217;43.960;10.954;2023-05-07T11:26:27;21.10;88.70
10344;DHT22;5217;43.960;10.954;2023-05-07T11:28:57;21.10;89.30
10344;DHT22;5217;43.960;10.954;2023-05-07T11:31:27;21.20;89.00
10344;DHT22;5217;43.960;10.954;2023-05-07T11:33:57;21.20;89.50
10344;DHT22;5217;43.960;10.954;2023-05-07T11:36:30;21.20;89.50
10344;DHT22;5217;43.960;10.954;2023-05-07T11:38:59;21.20;90.10
10344;DHT22;5217;43.960;10.954;2023-05-07T11:41:35;21.30;89.70
10344;DHT22;5217;43.960;10.954;2023-05-07T11:44:04;21.30;90.30
10344;DHT22;5217;43.960;10.954;2023-05-07T11:46:33;21.30;91.10
10344;DHT22;5217;43.960;10.954;2023-05-07T11:49:02;21.40;91.60
10344;DHT22;5217;43.960;10.954;2023-05-07T11:51:30;21.40;91.50
10344;DHT22;5217;43.960;10.954;2023-05-07T11:53:58;21.40;90.90
10344;DHT22;5217;43.960;10.954;2023-05-07T11:56:27;21.50;91.00
10344;DHT22;5217;43.960;10.954;2023-05-07T11:58:56;21.50;91.30
10344;DHT22;5217;43.960;10.954;2023-05-07T12:01:25;21.50;92.70
10344;DHT22;5217;43.960;10.954;2023-05-07T12:03:53;21.50;92.00
10344;DHT22;5217;43.960;10.954;2023-05-07T12:06:22;21.60;91.70
10344;DHT22;5217;43.960;10.954;2023-05-07T12:08:50;21.60;91.60
10344;DHT22;5217;43.960;10.954;2023-05-07T12:11:23;21.60;91.70
10344;DHT22;5217;43.960;10.954;2023-05-07T12:13:53;21.60;91.30
10344;DHT22;5217;43.960;10.954;2023-05-07T12:16:26;21.70;91.20
10344;DHT22;5217;43.960;10.954;2023-05-07T12:18:55;21.70;90.80
10344;DHT22;5217;43.960;10.954;2023-05-07T12:21:25;21.70;90.80
10344;DHT22;5217;43.960;10.954;2023-05-07T12:23:54;21.70;89.50
10344;DHT22;5217;43.960;10.954;2023-05-07T12:26:23;21.80;90.30
10344;DHT22;5217;43.960;10.954;2023-05-07T12:28:52;21.80;90.50
10344;DHT22;5217;43.960;10.954;2023-05-07T12:31:21;21.90;90.60
10344;DHT22;5217;43.960;10.954;2023-05-07T12:33:51;21.90;90.70
10344;DHT22;5217;43.960;10.954;2023-05-07T12:36:19;21.90;90.80
10344;DHT22;5217;43.960;10.954;2023-05-07T12:38:49;22.00;90.40
10344;DHT22;5217;43.960;10.954;2023-05-07T12:41:18;22.00;90.40
10344;DHT22;5217;43.960;10.954;2023-05-07T12:43:56;22.00;90.50
10344;DHT22;5217;43.960;10.954;2023-05-07T12:46:25;22.00;90.90
10344;DHT22;5217;43.960;10.954;2023-05-07T12:48:55;22.10;90.90
10344;DHT22;5217;43.960;10.954;2023-05-07T12:51:24;22.10;91.20
10344;DHT22;5217;43.960;10.954;2023-05-07T12:53:56;22.10;91.10
10344;DHT22;5217;43.960;10.954;2023-05-07T12:56:24;22.20;91.60
10344;DHT22;5217;43.960;10.954;2023-05-07T12:58:57;22.20;91.70
10344;DHT22;5217;43.960;10.954;2023-05-07T13:01:29;22.30;92.30
10344;DHT22;5217;43.960;10.954;2023-05-07T13:04:03;22.30;92.50
10344;DHT22;5217;43.960;10.954;2023-05-07T13:06:32;22.30;92.70
10344;DHT22;5217;43.960;10.954;2023-05-07T13:09:01;22.40;93.00
10344;DHT22;5217;43.960;10.954;2023-05-07T13:11:29;22.40;92.90
10344;DHT22;5217;43.960;10.954;2023-05-07T13:13:58;22.50;92.80
10344;DHT22;5217;43.960;10.954;2023-05-07T13:16:26;22.50;92.50
10344;DHT22;5217;43.960;10.954;2023-05-07T13:18:55;22.50;92.60
10344;DHT22;5217;43.960;10.954;2023-05-07T13:21:25;22.60;92.90
10344;DHT22;5217;43.960;10.954;2023-05-07T13:23:53;22.60;92.90
10344;DHT22;5217;43.960;10.954;2023-05-07T13:26:22;22.60;93.20
10344;DHT22;5217;43.960;10.954;2023-05-07T13:28:53;22.60;93.20
10344;DHT22;5217;43.960;10.954;2023-05-07T13:31:22;22.60;93.20
10344;DHT22;5217;43.960;10.954;2023-05-07T13:33:50;22.60;93.20
10344;DHT22;5217;43.960;10.954;2023-05-07T13:36:19;22.70;93.20
10344;DHT22;5217;43.960;10.954;2023-05-07T13:38:50;22.70;93.10
10344;DHT22;5217;43.960;10.954;2023-05-07T13:41:19;22.70;92.80
10344;DHT22;5217;43.960;10.954;2023-05-07T13:43:48;22.70;92.50
10344;DHT22;5217;43.960;10.954;2023-05-07T13:46:17;22.70;92.90
10344;DHT22;5217;43.960;10.954;2023-05-07T13:48:45;22.70;93.40
10344;DHT22;5217;43.960;10.954;2023-05-07T13:51:14;22.70;93.50
10344;DHT22;5217;43.960;10.954;2023-05-07T13:53:42;22.80;94.10
10344;DHT22;5217;43.960;10.954;2023-05-07T13:56:13;22.80;93.90
10344;DHT22;5217;43.960;10.954;2023-05-07T13:58:41;22.80;93.60
10344;DHT22;5217;43.960;10.954;2023-05-07T14:01:25;22.80;93.50
10344;DHT22;5217;43.960;10.954;2023-05-07T14:03:56;22.80;93.20
10344;DHT22;5217;43.960;10.954;2023-05-07T14:06:25;22.80;93.40
10344;DHT22;5217;43.960;10.954;2023-05-07T14:08:53;22.80;93.40
10344;DHT22;5217;43.960;10.954;2023-05-07T14:11:26;22.90;93.60
10344;DHT22;5217;43.960;10.954;2023-05-07T14:13:54;22.90;93.60
10344;DHT22;5217;43.960;10.954;2023-05-07T14:16:24;23.00;93.60
10344;DHT22;5217;43.960;10.954;2023-05-07T14:18:52;22.90;93.80
10344;DHT22;5217;43.960;10.954;2023-05-07T14:21:24;23.00;93.80
10344;DHT22;5217;43.960;10.954;2023-05-07T14:23:53;23.00;93.90
10344;DHT22;5217;43.960;10.954;2023-05-07T14:26:23;23.00;93.90
10344;DHT22;5217;43.960;10.954;2023-05-07T14:28:55;23.00;93.40
10344;DHT22;5217;43.960;10.954;2023-05-07T14:31:25;23.00;93.50
10344;DHT22;5217;43.960;10.954;2023-05-07T14:33:54;23.00;93.80
10344;DHT22;5217;43.960;10.954;2023-05-07T14:36:24;23.00;94.00
10344;DHT22;5217;43.960;10.954;2023-05-07T14:38:54;23.10;94.10
10344;DHT22;5217;43.960;10.954;2023-05-07T14:41:22;23.00;94.10
10344;DHT22;5217;43.960;10.954;2023-05-07T14:43:51;23.10;94.20
10344;DHT22;5217;43.960;10.954;2023-05-07T14:46:21;23.10;94.10
10344;DHT22;5217;43.960;10.954;2023-05-07T14:48:50;23.20;93.70
10344;DHT22;5217;43.960;10.954;2023-05-07T14:51:19;23.10;93.60
10344;DHT22;5217;43.960;10.954;2023-05-07T14:53:49;23.10;93.60
10344;DHT22;5217;43.960;10.954;2023-05-07T14:56:18;23.10;93.50
10344;DHT22;5217;43.960;10.954;2023-05-07T14:58:47;23.20;93.50
10344;DHT22;5217;43.960;10.954;2023-05-07T15:01:16;23.20;94.10
10344;DHT22;5217;43.960;10.954;2023-05-07T15:03:45;23.20;94.00
10344;DHT22;5217;43.960;10.954;2023-05-07T15:06:14;23.30;93.90
10344;DHT22;5217;43.960;10.954;2023-05-07T15:08:42;23.30;93.70
10344;DHT22;5217;43.960;10.954;2023-05-07T15:11:10;23.30;93.40
10344;DHT22;5217;43.960;10.954;2023-05-07T15:13:39;23.30;93.40
10344;DHT22;5217;43.960;10.954;2023-05-07T15:16:07;23.40;93.40
10344;DHT22;5217;43.960;10.954;2023-05-07T15:18:35;23.30;93.40
10344;DHT22;5217;43.960;10.954;2023-05-07T15:21:05;23.40;93.30
10344;DHT22;5217;43.960;10.954;2023-05-07T15:23:34;23.40;93.00
10344;DHT22;5217;43.960;10.954;2023-05-07T15:26:03;23.40;92.90
10344;DHT22;5217;43.960;10.954;2023-05-07T15:28:31;23.40;92.90
10344;DHT22;5217;43.960;10.954;2023-05-07T15:31:00;23.40;92.90
10344;DHT22;5217;43.960;10.954;2023-05-07T15:33:28;23.40;92.90
10344;DHT22;5217;43.960;10.954;2023-05-07T15:35:56;23.40;92.40
10344;DHT22;5217;43.960;10.954;2023-05-07T15:38:27;23.40;92.40
10344;DHT22;5217;43.960;10.954;2023-05-07T15:40:55;23.40;92.50
10344;DHT22;5217;43.960;10.954;2023-05-07T15:43:24;23.40;92.40
10344;DHT22;5217;43.960;10.954;2023-05-07T15:45:53;23.40;92.10
10344;DHT22;5217;43.960;10.954;2023-05-07T15:48:22;23.40;91.70